Terminal Aerodrome Forecast
Issued by NWS Blacksburg, VA

Home | Current Version | Previous Version | Text Only | Print | Product List | Glossary On
Versions: 1 2 3 4 5 6 7 8 9 10 11 12 13 14 15 16 17 18 19 20 21 22 23 24 25 26 27 28 29 30 31 32 33 34 35 36
000
FTUS41 KRNK 261120
TAFBLF
TAF
KBLF 261120Z 2612/2712 23010G20KT 3SM SHRA OVC025
     FM261500 28013G21KT 5SM SHRA BR OVC018
     FM261800 29016G26KT 3SM SHRA VCTS OVC015CB
     FM262000 29017G28KT P6SM OVC011
      TEMPO 2620/2621 4SM -SHRA BR OVC007
     FM270300 29014G23KT P6SM SCT022=

USA.gov is the U.S. government's official web portal to all federal, state and local government web resources and services.